Time;durP1;ratioP1;P1;durP2;ratioP2;P2;SDS_P1;SDS_P2;PMS_P1;PMS_P2;Temp;Humidity;BMP_temperature;BMP_pressure;BME280_temperature;BME280_humidity;BME280_pressure;Samples;Min_cycle;Max_cycle;Signal;HPM_P1;HPM_P2
2023/12/23 00:01:28;;;;;;;3.57;1.00;;;;;;;6.10;100.00;100957.84;4974817;28;20034;-85
2023/12/23 00:03:53;;;;;;;2.60;0.70;;;;;;;6.09;100.00;100963.88;4973792;28;20408;-84
2023/12/23 00:06:18;;;;;;;2.05;0.63;;;;;;;6.09;100.00;100974.16;4974543;28;20599;-85
2023/12/23 00:08:44;;;;;;;2.23;0.70;;;;;;;6.11;100.00;100964.75;4974688;28;20019;-85
2023/12/23 00:11:09;;;;;;;2.10;1.07;;;;;;;6.11;100.00;100959.59;4974128;28;20375;-85
2023/12/23 00:13:34;;;;;;;1.63;0.77;;;;;;;6.10;100.00;100953.59;4974363;28;20033;-85
2023/12/23 00:15:59;;;;;;;1.30;0.75;;;;;;;6.10;100.00;100951.00;4974344;28;20031;-85
2023/12/23 00:18:25;;;;;;;1.23;0.50;;;;;;;6.10;100.00;100945.84;4973827;28;20031;-86
2023/12/23 00:20:50;;;;;;;1.27;0.77;;;;;;;6.11;100.00;100946.69;4974149;28;20034;-86
2023/12/23 00:23:15;;;;;;;1.50;0.50;;;;;;;6.09;100.00;100938.97;4974529;28;20102;-86
2023/12/23 00:25:41;;;;;;;0.60;0.40;;;;;;;6.14;100.00;100939.00;4973283;28;20034;-86
2023/12/23 00:28:06;;;;;;;3.15;0.82;;;;;;;6.13;100.00;100945.00;4974359;28;20027;-86
2023/12/23 00:30:32;;;;;;;0.80;0.57;;;;;;;6.15;100.00;100932.97;4974120;28;20030;-85
2023/12/23 00:32:57;;;;;;;1.50;0.60;;;;;;;6.16;100.00;100924.41;4972775;28;20105;-85
2023/12/23 00:35:22;;;;;;;0.77;0.57;;;;;;;6.16;100.00;100927.81;4974129;28;20022;-85
2023/12/23 00:37:48;;;;;;;3.47;0.80;;;;;;;6.14;100.00;100924.38;4973352;28;20491;-85
2023/12/23 00:40:16;;;;;;;6.00;1.80;;;;;;;6.09;100.00;100944.13;4974127;28;20057;-86
2023/12/23 00:42:41;;;;;;;4.20;1.80;;;;;;;6.05;100.00;100954.41;4974004;28;20023;-85
2023/12/23 00:45:07;;;;;;;4.77;1.53;;;;;;;6.07;100.00;100937.25;4973533;28;20026;-85
2023/12/23 00:47:32;;;;;;;2.40;1.20;;;;;;;6.09;100.00;100920.06;4973534;28;20026;-86
2023/12/23 00:49:58;;;;;;;1.37;0.90;;;;;;;6.11;100.00;100928.66;4973954;28;20493;-86
2023/12/23 00:52:23;;;;;;;1.40;0.90;;;;;;;6.10;100.00;100907.19;4973556;28;20030;-86
2023/12/23 00:54:48;;;;;;;0.68;0.57;;;;;;;6.15;100.00;100909.78;4973997;28;20433;-86
2023/12/23 00:57:14;;;;;;;1.38;0.80;;;;;;;6.18;100.00;100914.97;4974071;28;20031;-86
2023/12/23 00:59:39;;;;;;;0.50;0.47;;;;;;;6.20;100.00;100912.38;4973286;28;20047;-86
2023/12/23 01:02:05;;;;;;;0.32;0.32;;;;;;;6.22;100.00;100905.53;4973656;28;20050;-86
2023/12/23 01:04:30;;;;;;;2.47;0.60;;;;;;;6.24;100.00;100908.97;4973907;28;20023;-86
2023/12/23 01:06:55;;;;;;;1.93;0.83;;;;;;;6.22;100.00;100902.94;4972429;28;20440;-86
2023/12/23 01:09:20;;;;;;;1.17;0.60;;;;;;;6.27;100.00;100901.22;4974294;28;20116;-86
2023/12/23 01:11:46;;;;;;;2.45;1.15;;;;;;;6.28;100.00;100898.69;4973284;28;20093;-86
2023/12/23 01:14:11;;;;;;;7.47;1.85;;;;;;;6.27;100.00;100894.38;4973045;28;20030;-86
2023/12/23 01:16:36;;;;;;;4.50;1.30;;;;;;;6.31;100.00;100902.97;4973753;28;20023;-86
2023/12/23 01:19:03;;;;;;;1.30;1.20;;;;;;;6.34;100.00;100892.69;4973745;28;20042;-86
2023/12/23 01:21:28;;;;;;;3.72;1.40;;;;;;;6.34;100.00;100885.78;4973069;28;20109;-86
2023/12/23 01:23:54;;;;;;;1.52;1.20;;;;;;;6.41;100.00;100868.63;4973673;28;20101;-86
2023/12/23 01:26:19;;;;;;;4.00;1.40;;;;;;;6.43;100.00;100858.31;4973791;28;20026;-86
2023/12/23 01:28:44;;;;;;;3.50;1.70;;;;;;;6.59;100.00;100872.09;4972986;28;20093;-86
2023/12/23 01:31:09;;;;;;;6.28;1.95;;;;;;;6.68;100.00;100856.66;4973882;28;20476;-86
2023/12/23 01:33:35;;;;;;;5.50;1.55;;;;;;;6.81;100.00;100857.50;4973714;28;20042;-87
2023/12/23 01:36:02;;;;;;;6.37;2.03;;;;;;;6.92;100.00;100862.69;4973046;28;20379;-87
2023/12/23 01:38:27;;;;;;;7.90;1.92;;;;;;;7.02;100.00;100859.25;4973571;28;20050;-87
2023/12/23 01:40:53;;;;;;;4.80;1.77;;;;;;;7.06;100.00;100857.53;4973543;28;20039;-87
2023/12/23 01:43:18;;;;;;;4.93;1.70;;;;;;;7.07;100.00;100849.75;4973162;28;20023;-87
2023/12/23 01:45:43;;;;;;;5.32;1.70;;;;;;;7.09;100.00;100844.63;4976953;28;20026;-87
2023/12/23 01:48:13;;;;;;;4.73;2.00;;;;;;;7.20;100.00;100853.22;4976677;28;20062;-87
2023/12/23 01:50:39;;;;;;;7.78;1.92;;;;;;;7.22;100.00;100856.63;4976952;28;20094;-87
2023/12/23 01:53:04;;;;;;;7.20;1.97;;;;;;;7.27;100.00;100841.13;4977253;28;20026;-87
2023/12/23 01:55:31;;;;;;;8.85;2.30;;;;;;;7.28;100.00;100850.59;4976270;28;20846;-87
2023/12/23 01:57:57;;;;;;;10.68;2.40;;;;;;;7.34;100.00;100857.47;4976889;28;20546;-87
2023/12/23 02:00:22;;;;;;;7.83;1.97;;;;;;;7.35;100.00;100848.88;4976949;28;20023;-87
2023/12/23 02:02:48;;;;;;;10.63;2.37;;;;;;;7.40;100.00;100850.56;4975874;28;20466;-85
2023/12/23 02:05:14;;;;;;;5.27;1.93;;;;;;;7.45;100.00;100836.81;4976945;28;20037;-87
2023/12/23 02:07:42;;;;;;;5.30;2.00;;;;;;;7.35;100.00;100834.25;4976605;28;20109;-86
2023/12/23 02:10:08;;;;;;;6.53;1.88;;;;;;;7.45;100.00;100853.16;4995382;28;20030;-87
2023/12/23 02:12:42;;;;;;;7.70;1.93;;;;;;;7.45;100.00;100849.72;4995915;28;20025;-87
2023/12/23 02:15:09;;;;;;;4.65;1.70;;;;;;;7.47;100.00;100845.41;4995391;28;20034;-86
2023/12/23 02:17:38;;;;;;;;;;;;;;;7.49;100.00;100838.50;4995522;28;20126;-86
2023/12/23 02:20:04;;;;;;;6.50;1.90;;;;;;;7.40;100.00;100822.19;4995749;28;20295;-87
2023/12/23 02:22:32;;;;;;;6.17;1.80;;;;;;;7.40;100.00;100811.84;4996083;28;20030;-87
2023/12/23 02:24:58;;;;;;;7.50;2.08;;;;;;;7.47;100.00;100846.25;4995499;28;20046;-86
2023/12/23 02:27:29;;;;;;;6.67;2.10;;;;;;;7.47;100.00;100832.50;4995309;28;20438;-87
2023/12/23 02:29:56;;;;;;;6.10;2.00;;;;;;;7.47;100.00;100830.75;4995553;28;20026;-86
2023/12/23 02:32:23;;;;;;;6.40;2.15;;;;;;;7.50;100.00;100841.09;4995253;28;20027;-87
2023/12/23 02:34:49;;;;;;;4.03;1.98;;;;;;;7.48;100.00;100835.06;4995342;28;20034;-86
2023/12/23 02:37:14;;;;;;;9.13;2.00;;;;;;;7.48;100.00;100823.91;4995139;28;20042;-87
2023/12/23 02:39:39;;;;;;;6.03;1.93;;;;;;;7.48;100.00;100824.75;4994737;28;20031;-88
2023/12/23 02:42:05;;;;;;;4.90;1.88;;;;;;;7.50;100.00;100817.84;4990092;28;20495;-87
2023/12/23 02:44:30;;;;;;;4.93;2.07;;;;;;;7.52;100.00;100821.31;4974976;28;20023;-87
2023/12/23 02:46:55;;;;;;;7.80;1.90;;;;;;;7.51;100.00;100823.88;4975597;28;20202;-87
2023/12/23 02:49:21;;;;;;;5.80;2.00;;;;;;;7.54;100.00;100813.53;4976543;28;20073;-87
2023/12/23 02:51:46;;;;;;;6.37;1.70;;;;;;;7.51;100.00;100796.34;4975468;28;20027;-87
2023/12/23 02:54:11;;;;;;;9.53;2.20;;;;;;;7.58;100.00;100799.75;4975838;28;20023;-87
2023/12/23 02:56:36;;;;;;;6.18;1.70;;;;;;;7.56;100.00;100796.31;4975926;28;20038;-86
2023/12/23 02:59:02;;;;;;;5.37;1.60;;;;;;;7.56;100.00;100792.00;4975294;28;20052;-86
2023/12/23 03:01:27;;;;;;;8.53;2.13;;;;;;;7.53;100.00;100781.69;4975815;28;20023;-87
2023/12/23 03:03:53;;;;;;;8.20;2.30;;;;;;;7.59;100.00;100798.91;4975976;28;20042;-87
2023/12/23 03:06:18;;;;;;;8.30;2.20;;;;;;;7.67;100.00;100801.44;4975477;28;20383;-87
2023/12/23 03:08:44;;;;;;;7.30;1.97;;;;;;;7.65;100.00;100791.09;4975517;28;20023;-87
2023/12/23 03:11:09;;;;;;;9.37;1.80;;;;;;;7.67;100.00;100785.94;4975928;28;20031;-87
2023/12/23 03:13:34;;;;;;;6.93;2.17;;;;;;;7.65;100.00;100777.34;4975037;28;20109;-87
2023/12/23 03:16:00;;;;;;;10.18;2.20;;;;;;;7.69;100.00;100787.66;4975401;28;20030;-87
2023/12/23 03:18:25;;;;;;;6.87;2.23;;;;;;;7.70;100.00;100789.38;4975559;28;20039;-87
2023/12/23 03:20:50;;;;;;;8.17;2.40;;;;;;;7.73;100.00;100778.16;4974766;28;20349;-87
2023/12/23 03:23:16;;;;;;;7.80;2.07;;;;;;;7.73;100.00;100785.91;4975624;28;20050;-87
2023/12/23 03:25:41;;;;;;;7.47;2.20;;;;;;;7.66;100.00;100768.72;4975277;28;20069;-87
2023/12/23 03:28:09;;;;;;;8.60;2.27;;;;;;;7.69;100.00;100777.31;4974843;28;20090;-87
2023/12/23 03:30:34;;;;;;;6.30;2.05;;;;;;;7.72;100.00;100787.63;4974985;28;20069;-88
2023/12/23 03:33:00;;;;;;;5.80;1.77;;;;;;;7.78;100.00;100791.06;4975966;28;20050;-87
2023/12/23 03:35:25;;;;;;;9.97;2.43;;;;;;;7.81;100.00;100778.97;4974757;28;20038;-86
2023/12/23 03:37:50;;;;;;;7.85;2.10;;;;;;;7.83;100.00;100785.00;4974886;28;20076;-88
2023/12/23 03:40:16;;;;;;;5.73;1.73;;;;;;;7.87;100.00;100773.81;4975258;28;20073;-86
2023/12/23 03:42:41;;;;;;;9.23;2.03;;;;;;;7.86;100.00;100771.19;4974245;28;20027;-87
2023/12/23 03:45:07;;;;;;;5.87;1.80;;;;;;;7.80;100.00;100753.16;4975171;28;20521;-87
2023/12/23 03:47:34;;;;;;;7.63;2.00;;;;;;;7.81;100.00;100762.63;4974852;28;20086;-87
2023/12/23 03:49:59;;;;;;;7.72;2.55;;;;;;;7.77;100.00;100763.50;4974379;28;20034;-87
2023/12/23 03:52:25;;;;;;;5.60;1.70;;;;;;;7.81;100.00;100760.91;4974981;28;20033;-87
2023/12/23 03:54:50;;;;;;;10.10;2.50;;;;;;;7.81;100.00;100760.91;4973795;28;20365;-86
2023/12/23 03:57:15;;;;;;;7.28;1.80;;;;;;;7.80;100.00;100766.94;4974848;28;20035;-87
2023/12/23 03:59:41;;;;;;;8.37;2.13;;;;;;;7.82;100.00;100770.38;4974619;28;20026;-87
2023/12/23 04:02:06;;;;;;;7.38;2.30;;;;;;;7.80;100.00;100772.09;4992792;28;20054;-87
2023/12/23 04:04:32;;;;;;;9.30;2.67;;;;;;;7.85;100.00;100753.97;4994189;28;20054;-87
2023/12/23 04:06:57;;;;;;;6.90;2.20;;;;;;;7.83;100.00;100764.34;4994281;28;20040;-87
2023/12/23 04:09:23;;;;;;;7.80;2.00;;;;;;;7.88;100.00;100762.56;4993782;28;20471;-86
2023/12/23 04:11:48;;;;;;;9.68;2.25;;;;;;;7.85;100.00;100762.59;4993922;28;20023;-87
2023/12/23 04:14:13;;;;;;;10.80;2.30;;;;;;;7.89;100.00;100748.78;4994162;28;20030;-87
2023/12/23 04:16:41;;;;;;;9.15;2.35;;;;;;;7.92;100.00;100762.56;4993066;28;20113;-86
2023/12/23 04:19:06;;;;;;;6.53;2.00;;;;;;;7.91;100.00;100766.88;4994087;28;20018;-87
2023/12/23 04:21:32;;;;;;;8.77;2.10;;;;;;;7.91;100.00;100758.25;4994033;28;20072;-86
2023/12/23 04:23:58;;;;;;;8.47;2.27;;;;;;;7.93;100.00;100749.66;4993210;28;20037;-86
2023/12/23 04:26:24;;;;;;;11.73;2.67;;;;;;;7.93;100.00;100749.66;4994046;28;20383;-87
2023/12/23 04:28:49;;;;;;;13.50;2.53;;;;;;;7.94;100.00;100743.59;4993253;28;20026;-87
2023/12/23 04:31:15;;;;;;;11.20;2.90;;;;;;;7.93;100.00;100723.81;4992819;28;20120;-86
2023/12/23 04:33:40;;;;;;;9.23;2.17;;;;;;;7.91;100.00;100724.66;4993374;28;20042;-86
2023/12/23 04:36:06;;;;;;;7.03;2.00;;;;;;;7.91;100.00;100727.25;4993843;28;20390;-86
2023/12/23 04:38:31;;;;;;;10.43;2.40;;;;;;;7.91;100.00;100720.38;4992725;28;20109;-88
2023/12/23 04:40:57;;;;;;;9.97;2.30;;;;;;;7.91;100.00;100727.25;4993765;28;20042;-87
2023/12/23 04:43:22;;;;;;;6.63;2.10;;;;;;;7.89;100.00;100715.19;4993642;28;20041;-88
2023/12/23 04:45:47;;;;;;;8.30;2.33;;;;;;;7.85;100.00;100703.19;4992836;28;20025;-88
2023/12/23 04:48:12;;;;;;;8.80;2.50;;;;;;;7.91;100.00;100704.00;4994020;28;20378;-87
2023/12/23 04:50:38;;;;;;;9.63;2.42;;;;;;;7.93;100.00;100712.59;4993369;28;20030;-86
2023/12/23 04:53:03;;;;;;;8.17;2.40;;;;;;;7.92;100.00;100716.03;4993277;28;20054;-89
2023/12/23 04:55:29;;;;;;;11.37;2.43;;;;;;;7.91;100.00;100724.66;4993735;28;20026;-89
2023/12/23 04:57:54;;;;;;;6.90;2.10;;;;;;;7.91;100.00;100714.31;4993195;28;20034;-88
2023/12/23 05:00:19;;;;;;;8.53;2.20;;;;;;;7.78;100.00;100698.06;4993200;28;20037;-88
2023/12/23 05:02:45;;;;;;;8.40;2.87;;;;;;;7.89;100.00;100706.59;4993421;28;20471;-88
2023/12/23 05:05:10;;;;;;;9.23;2.40;;;;;;;7.84;100.00;100711.78;4993605;28;20113;-88
2023/12/23 05:07:35;;;;;;;10.50;2.40;;;;;;;7.86;100.00;100711.78;4993237;28;20046;-87
2023/12/23 05:10:01;;;;;;;9.85;2.42;;;;;;;7.85;100.00;100712.63;4993640;28;20106;-88
2023/12/23 05:12:26;;;;;;;9.30;2.17;;;;;;;7.84;100.00;100716.09;4993607;28;20037;-90
2023/12/23 05:14:51;;;;;;;9.97;2.87;;;;;;;7.85;100.00;100694.56;4993585;28;20109;-87
2023/12/23 05:17:17;;;;;;;11.90;2.45;;;;;;;7.87;100.00;100714.38;4994023;28;20029;-88
2023/12/23 05:19:42;;;;;;;8.47;2.20;;;;;;;7.87;100.00;100711.78;4994916;28;20430;-87
2023/12/23 05:22:08;;;;;;;9.35;2.30;;;;;;;7.85;100.00;100702.31;4997849;28;20037;-89
2023/12/23 05:24:36;;;;;;;9.33;2.37;;;;;;;7.84;100.00;100687.66;4991435;28;20118;-88
2023/12/23 05:27:07;;;;;;;12.20;2.30;;;;;;;7.89;100.00;100683.34;4977915;28;20038;-89
2023/12/23 05:29:33;;;;;;;9.50;2.10;;;;;;;7.87;100.00;100691.13;4978081;28;20145;-88
2023/12/23 05:31:58;;;;;;;8.00;2.07;;;;;;;7.91;100.00;100701.41;4978316;28;20097;-89
2023/12/23 05:34:23;;;;;;;6.83;2.07;;;;;;;7.91;100.00;100691.06;4977516;28;20046;-89
2023/12/23 05:36:49;;;;;;;8.40;2.30;;;;;;;7.89;100.00;100699.69;4977588;28;20031;-88
2023/12/23 05:39:16;;;;;;;10.63;2.47;;;;;;;7.94;100.00;100683.31;4977847;28;20027;-88
2023/12/23 05:41:41;;;;;;;;;;;;;;;7.95;100.00;100688.44;4977553;28;20047;-87
2023/12/23 05:44:08;;;;;;;9.70;2.85;;;;;;;7.98;100.00;100695.34;4986995;28;20023;-88
2023/12/23 05:46:33;;;;;;;9.13;2.20;;;;;;;7.96;100.00;100690.16;4996733;28;20042;-87
2023/12/23 05:49:02;;;;;;;10.80;2.20;;;;;;;7.94;100.00;100681.56;4996400;28;20034;-89
2023/12/23 05:51:27;;;;;;;8.02;2.10;;;;;;;7.96;100.00;100687.59;4996959;28;20459;-88
2023/12/23 05:53:52;;;;;;;7.90;2.20;;;;;;;7.95;100.00;100685.88;4996877;28;20037;-89
2023/12/23 05:56:17;;;;;;;7.73;2.10;;;;;;;7.97;100.00;100699.63;4996117;28;20044;-88
2023/12/23 05:58:43;;;;;;;6.80;2.20;;;;;;;8.01;100.00;100709.09;4996300;28;20030;-89
2023/12/23 06:01:09;;;;;;;8.88;2.35;;;;;;;8.00;100.00;100702.22;4996938;28;20150;-88
2023/12/23 06:03:34;;;;;;;9.20;2.40;;;;;;;7.98;100.00;100679.84;4995424;28;20023;-88
2023/12/23 06:06:01;;;;;;;10.23;2.70;;;;;;;8.00;100.00;100699.63;4996689;28;20117;-89
2023/12/23 06:08:26;;;;;;;10.43;2.45;;;;;;;8.02;100.00;100690.16;4996164;28;20113;-87
2023/12/23 06:10:51;;;;;;;10.70;2.43;;;;;;;8.04;100.00;100696.16;4996804;28;20061;-88
2023/12/23 06:13:16;;;;;;;11.63;2.70;;;;;;;8.08;100.00;100704.75;4978291;28;20019;-89
2023/12/23 06:15:42;;;;;;;11.70;2.77;;;;;;;8.07;100.00;100684.94;4976169;28;20069;-88
2023/12/23 06:18:07;;;;;;;11.83;2.47;;;;;;;8.06;100.00;100683.22;4977399;28;20487;-89
2023/12/23 06:20:32;;;;;;;11.90;3.03;;;;;;;8.04;100.00;100679.78;4976648;28;20030;-87
2023/12/23 06:22:57;;;;;;;4.97;2.20;;;;;;;7.99;100.00;100676.38;4976553;28;20018;-88
2023/12/23 06:25:23;;;;;;;9.83;2.30;;;;;;;8.06;100.00;100687.50;4977170;28;20395;-88
2023/12/23 06:27:48;;;;;;;10.13;2.40;;;;;;;8.07;100.00;100668.56;4977085;28;20042;-87
2023/12/23 06:30:14;;;;;;;9.40;2.77;;;;;;;7.98;100.00;100682.44;4975941;28;20158;-88
2023/12/23 06:32:39;;;;;;;9.27;2.38;;;;;;;8.03;100.00;100693.56;4976355;28;20027;-89
2023/12/23 06:35:04;;;;;;;9.50;2.43;;;;;;;8.06;100.00;100682.34;4977056;28;20045;-89
2023/12/23 06:37:30;;;;;;;12.93;2.53;;;;;;;8.07;100.00;100699.56;4976535;28;20070;-88
2023/12/23 06:39:55;;;;;;;8.20;2.33;;;;;;;8.08;100.00;100706.47;4976189;28;20038;-88
2023/12/23 06:42:20;;;;;;;8.03;2.20;;;;;;;8.08;100.00;100685.78;4977078;28;20479;-88
2023/12/23 06:44:46;;;;;;;8.20;2.20;;;;;;;8.10;100.00;100703.03;4976142;28;20058;-90
2023/12/23 06:47:11;;;;;;;9.33;2.23;;;;;;;8.11;100.00;100694.38;4976930;28;20023;-88
2023/12/23 06:49:36;;;;;;;8.80;2.40;;;;;;;8.08;100.00;100694.41;4975967;28;20070;-88
2023/12/23 06:52:01;;;;;;;10.27;2.70;;;;;;;8.09;100.00;100690.97;4976692;28;20019;-88
2023/12/23 06:54:27;;;;;;;9.80;2.53;;;;;;;8.10;100.00;100697.84;4976236;28;20506;-88
2023/12/23 06:56:52;;;;;;;7.73;2.20;;;;;;;8.12;100.00;100693.50;4976149;28;20023;-88
2023/12/23 06:59:17;;;;;;;8.57;2.40;;;;;;;8.10;100.00;100684.94;4976053;28;20047;-90
2023/12/23 07:01:43;;;;;;;12.47;2.40;;;;;;;8.16;100.00;100700.38;4976263;28;20420;-89
2023/12/23 07:04:08;;;;;;;9.43;2.33;;;;;;;8.17;100.00;100683.13;4976108;28;20019;-88
2023/12/23 07:06:35;;;;;;;8.03;2.30;;;;;;;8.19;100.00;100692.59;4981110;28;20027;-86
2023/12/23 07:09:00;;;;;;;8.73;2.50;;;;;;;8.23;100.00;100685.69;4995328;28;20050;-87
2023/12/23 07:11:25;;;;;;;9.03;2.30;;;;;;;8.26;100.00;100696.00;4995283;28;20053;-92
2023/12/23 07:13:53;;;;;;;8.67;2.17;;;;;;;8.23;100.00;100665.00;4994354;28;20101;-86
2023/12/23 07:16:19;;;;;;;12.75;2.45;;;;;;;8.25;100.00;100672.72;4995068;28;20029;-85
2023/12/23 07:18:44;;;;;;;7.43;2.07;;;;;;;8.29;100.00;100685.59;4995034;28;20018;-88
2023/12/23 07:21:09;;;;;;;10.57;2.40;;;;;;;8.29;100.00;100689.94;4995446;28;20018;-88
2023/12/23 07:23:34;;;;;;;8.50;2.17;;;;;;;8.27;100.00;100691.66;4994995;28;20023;-88
2023/12/23 07:26:02;;;;;;;7.00;1.97;;;;;;;8.29;100.00;100693.38;4994942;28;20102;-88
2023/12/23 07:28:27;;;;;;;10.52;2.10;;;;;;;8.31;100.00;100701.13;4995671;28;20081;-89
2023/12/23 07:30:52;;;;;;;6.47;2.67;;;;;;;8.35;100.00;100697.63;4995333;28;20026;-88
2023/12/23 07:33:18;;;;;;;7.23;2.17;;;;;;;8.35;100.00;100701.09;4994722;28;20449;-89
2023/12/23 07:35:43;;;;;;;10.30;2.23;;;;;;;8.34;100.00;100701.97;4980349;28;20022;-89
2023/12/23 07:38:10;;;;;;;11.13;2.27;;;;;;;8.40;100.00;100706.22;4975707;28;20138;-89
2023/12/23 07:40:35;;;;;;;6.85;2.30;;;;;;;8.42;100.00;100714.81;4975210;28;20472;-88
2023/12/23 07:43:01;;;;;;;10.43;2.33;;;;;;;8.45;100.00;100721.69;4975146;28;20090;-90
2023/12/23 07:45:27;;;;;;;7.90;2.20;;;;;;;8.56;100.00;100719.03;4975571;28;20479;-89
2023/12/23 07:47:52;;;;;;;10.80;2.40;;;;;;;8.54;100.00;100688.00;4974699;28;20301;-88
2023/12/23 07:50:19;;;;;;;9.27;2.00;;;;;;;8.55;100.00;100697.50;4975856;28;20037;-90
2023/12/23 07:52:45;;;;;;;8.50;2.40;;;;;;;8.58;100.00;100687.13;4975818;28;20034;-90
2023/12/23 07:55:10;;;;;;;5.83;2.33;;;;;;;8.51;100.00;100675.09;4975382;28;20031;-89
2023/12/23 07:57:35;;;;;;;8.63;2.10;;;;;;;8.59;100.00;100681.09;4975505;28;20069;-89
2023/12/23 08:00:01;;;;;;;8.57;2.67;;;;;;;8.59;100.00;100699.19;4975917;28;20073;-89
2023/12/23 08:02:26;;;;;;;9.03;2.10;;;;;;;8.66;100.00;100702.59;4980024;28;20023;-89
2023/12/23 08:04:54;;;;;;;5.27;1.93;;;;;;;8.67;100.00;100712.03;4994507;28;20026;-90
2023/12/23 08:07:19;;;;;;;8.32;1.98;;;;;;;8.66;100.00;100697.41;4995265;28;20148;-89
2023/12/23 08:09:45;;;;;;;8.67;2.10;;;;;;;8.65;100.00;100706.03;4994057;28;20055;-89
2023/12/23 08:12:13;;;;;;;10.20;2.20;;;;;;;8.67;100.00;100690.50;4994826;28;20018;-90
2023/12/23 08:14:39;;;;;;;8.45;2.00;;;;;;;8.68;100.00;100713.75;4995018;28;20057;-90
2023/12/23 08:17:05;;;;;;;6.13;1.88;;;;;;;8.71;100.00;100729.25;4994868;28;20030;-91
2023/12/23 08:19:30;;;;;;;6.57;2.00;;;;;;;8.72;100.00;100723.22;4994957;28;20022;-90
2023/12/23 08:21:55;;;;;;;9.70;2.23;;;;;;;8.79;100.00;100721.41;4994463;28;20026;-89
2023/12/23 08:24:21;;;;;;;7.80;2.10;;;;;;;8.76;100.00;100709.38;4994376;28;20038;-88
2023/12/23 08:26:46;;;;;;;10.43;2.13;;;;;;;8.79;100.00;100719.69;4994629;28;20041;-90
2023/12/23 08:29:11;;;;;;;8.03;1.90;;;;;;;8.81;100.00;100722.28;4993771;28;20030;-88
2023/12/23 08:31:44;;;;;;;7.83;1.87;;;;;;;8.83;100.00;100728.28;4985579;28;20482;-87
2023/12/23 08:34:09;;;;;;;6.88;2.03;;;;;;;8.84;100.00;100721.38;4994332;28;20041;-90
2023/12/23 08:36:35;;;;;;;6.13;1.80;;;;;;;8.83;100.00;100717.94;4977039;28;20043;-88
2023/12/23 08:39:00;;;;;;;6.50;1.67;;;;;;;8.85;100.00;100731.69;4974557;28;20508;-89
2023/12/23 08:41:25;;;;;;;7.53;1.80;;;;;;;8.86;100.00;100722.22;4974555;28;20487;-89
2023/12/23 08:44:06;;;;;;;5.97;1.60;;;;;;;8.85;100.00;100731.69;4991943;28;20070;-90
2023/12/23 08:46:35;;;;;;;6.93;1.92;;;;;;;8.83;100.00;100728.28;4993898;28;20045;-89
2023/12/23 08:49:00;;;;;;;8.32;2.33;;;;;;;8.77;100.00;100705.03;4993876;28;20066;-89
2023/12/23 08:51:29;;;;;;;7.27;1.80;;;;;;;8.78;100.00;100710.19;4993399;28;20100;-89
2023/12/23 08:53:54;;;;;;;7.72;2.03;;;;;;;8.77;100.00;100707.63;4993140;28;20055;-88
2023/12/23 08:56:20;;;;;;;6.67;1.70;;;;;;;8.87;100.00;100739.47;4994104;28;20030;-89
2023/12/23 08:58:45;;;;;;;8.77;1.90;;;;;;;8.84;100.00;100726.53;4992692;28;20554;-88
2023/12/23 09:01:20;;;;;;;7.03;2.27;;;;;;;8.85;100.00;100749.81;4994105;28;20045;-89
2023/12/23 09:03:45;;;;;;;7.75;1.80;;;;;;;8.82;100.00;100749.88;4974240;28;20027;-88
2023/12/23 09:06:12;;;;;;;6.03;1.90;;;;;;;8.74;100.00;100752.53;5011065;28;20052;-89
2023/12/23 09:08:38;;;;;;;7.40;2.08;;;;;;;8.63;100.00;100738.81;5002438;28;20041;-88
2023/12/23 09:11:04;;;;;;;12.13;2.27;;;;;;;8.67;100.00;100756.00;5005929;28;20022;-89
2023/12/23 09:13:29;;;;;;;10.23;2.30;;;;;;;8.59;100.00;100760.41;5011309;28;20021;-88
2023/12/23 09:16:03;;;;;;;5.07;2.10;;;;;;;8.42;100.00;100743.28;5000832;28;20061;-86
2023/12/23 09:18:28;;;;;;;7.60;2.10;;;;;;;8.49;100.00;100760.47;5000022;28;20033;-85
2023/12/23 09:20:53;;;;;;;7.37;2.20;;;;;;;8.42;100.00;100757.91;5005535;28;20041;-87
2023/12/23 09:23:19;;;;;;;4.70;1.73;;;;;;;8.41;100.00;100770.00;4994559;28;20518;-87
2023/12/23 09:25:44;;;;;;;11.13;2.40;;;;;;;8.44;100.00;100770.00;4992609;28;20034;-88
2023/12/23 09:28:09;;;;;;;8.60;2.23;;;;;;;8.35;100.00;100763.16;5006431;28;20117;-87
2023/12/23 09:30:34;;;;;;;9.90;2.07;;;;;;;8.41;100.00;100756.19;5012777;28;20109;-88
2023/12/23 09:33:00;;;;;;;8.00;2.03;;;;;;;8.45;100.00;100757.91;5010133;28;20026;-89
2023/12/23 09:35:25;;;;;;;7.93;2.20;;;;;;;8.47;100.00;100771.69;4995212;28;20057;-88
2023/12/23 09:37:50;;;;;;;8.67;2.10;;;;;;;8.48;100.00;100765.69;5000582;28;20046;-87
2023/12/23 09:40:16;;;;;;;7.60;2.10;;;;;;;8.47;100.00;100769.97;5012579;28;20038;-87
2023/12/23 09:42:42;;;;;;;6.90;1.60;;;;;;;8.47;100.00;100772.56;5011649;28;20481;-87
2023/12/23 09:45:08;;;;;;;8.15;2.25;;;;;;;8.51;100.00;100760.47;5012465;28;20025;-86
2023/12/23 09:47:33;;;;;;;8.47;2.13;;;;;;;8.54;100.00;100762.19;5011587;28;20022;-87
2023/12/23 09:49:58;;;;;;;9.17;2.40;;;;;;;8.57;100.00;100775.94;5013026;28;20025;-88
2023/12/23 09:52:24;;;;;;;6.93;1.80;;;;;;;8.61;100.00;100781.94;5012459;28;20532;-87
2023/12/23 09:54:53;;;;;;;8.67;2.27;;;;;;;8.62;100.00;100792.28;5000993;28;20023;-87
2023/12/23 09:57:19;;;;;;;9.40;1.98;;;;;;;8.65;100.00;100788.81;4973672;28;20476;-87
2023/12/23 09:59:48;;;;;;;4.15;1.70;;;;;;;8.67;100.00;100792.22;4973521;28;20038;-86
2023/12/23 10:02:13;;;;;;;9.25;2.10;;;;;;;8.63;100.00;100788.81;4972989;28;20062;-87
2023/12/23 10:04:39;;;;;;;6.97;1.83;;;;;;;8.72;100.00;100810.34;4973870;28;20058;-87
2023/12/23 10:07:04;;;;;;;10.77;2.00;;;;;;;8.71;100.00;100801.69;4975984;28;20115;-87
2023/12/23 10:09:30;;;;;;;8.73;2.13;;;;;;;8.75;100.00;100808.56;4988913;28;20031;-86
2023/12/23 10:11:55;;;;;;;4.27;1.67;;;;;;;8.73;100.00;100804.25;4996273;28;20038;-87
2023/12/23 10:14:22;;;;;;;7.40;2.00;;;;;;;8.67;100.00;100794.81;4995827;28;20030;-87
2023/12/23 10:16:50;;;;;;;5.53;1.85;;;;;;;8.76;100.00;100805.13;4995010;28;20069;-86
2023/12/23 10:19:30;;;;;;;5.68;1.80;;;;;;;8.79;100.00;100802.47;4996165;28;20022;-86
2023/12/23 10:21:55;;;;;;;7.53;1.80;;;;;;;8.79;100.00;100786.13;4995168;28;20030;-86
2023/12/23 10:24:20;;;;;;;5.63;1.70;;;;;;;8.81;100.00;100790.41;4995768;28;20089;-87
2023/12/23 10:26:46;;;;;;;7.40;2.10;;;;;;;8.90;100.00;100791.19;4995401;28;20062;-87
2023/12/23 10:31:51;;;;;;;6.15;1.80;;;;;;;8.96;100.00;100785.97;5101117;23;20432;-86
2023/12/23 10:34:20;;;;;;;5.68;1.90;;;;;;;8.99;100.00;100778.19;4962942;28;20023;-86
2023/12/23 10:36:47;;;;;;;7.10;1.70;;;;;;;9.05;100.00;100785.88;4975719;28;20102;-87
2023/12/23 10:39:34;;;;;;;7.10;2.08;;;;;;;9.08;100.00;100784.97;4963851;28;20039;-85
2023/12/23 10:42:10;;;;;;;5.57;1.95;;;;;;;9.09;100.00;100786.69;4955346;28;20117;-84
2023/12/23 10:44:43;;;;;;;8.07;1.77;;;;;;;9.12;100.00;100800.44;4958402;28;20027;-84
2023/12/23 10:47:09;;;;;;;8.07;1.77;;;;;;;9.16;100.00;100809.06;4966680;28;20484;-84
2023/12/23 10:49:35;;;;;;;5.57;1.60;;;;;;;9.25;100.00;100780.50;4965968;28;20026;-86
2023/12/23 10:52:01;;;;;;;7.50;1.75;;;;;;;9.22;98.40;100790.03;4965485;28;20050;-85
2023/12/23 10:54:27;;;;;;;6.03;1.90;;;;;;;9.28;98.37;100777.00;4965443;28;20046;-86
2023/12/23 10:56:55;;;;;;;7.13;1.93;;;;;;;9.33;98.79;100759.69;4962582;28;20486;-86
2023/12/23 10:59:23;;;;;;;4.40;1.70;;;;;;;9.33;100.00;100777.81;4967911;28;20498;-84
2023/12/23 11:01:48;;;;;;;6.53;1.48;;;;;;;9.39;99.20;100785.50;4961486;28;20031;-84
2023/12/23 11:04:14;;;;;;;8.40;1.70;;;;;;;9.45;99.15;100769.03;4955790;28;20426;-85
2023/12/23 11:06:45;;;;;;;5.57;1.70;;;;;;;9.49;98.71;100769.84;4955901;29;20034;-86
2023/12/23 11:09:12;;;;;;;5.97;1.70;;;;;;;9.48;97.96;100778.50;4956960;29;20109;-83
2023/12/23 11:11:39;;;;;;;8.13;1.85;;;;;;;9.52;97.37;100782.78;4955217;29;20431;-86
2023/12/23 11:14:06;;;;;;;;;;;;;;;9.56;96.78;100787.06;4956967;29;20118;-85
2023/12/23 11:16:34;;;;;;;10.27;1.60;;;;;;;9.58;96.59;100791.34;4954956;28;19921;-86
2023/12/23 11:19:02;;;;;;;5.28;1.50;;;;;;;9.60;95.63;100788.72;4954847;29;20180;-85
2023/12/23 11:21:27;;;;;;;7.50;1.67;;;;;;;9.61;95.19;100782.66;4956128;28;20031;-87